Forest Grove, MT (59441)

8:41 PM MDT on July 11, 2014 (GMT -0600)
3/4 mile S of Lewistown (KMTLEWIS1) Elev 4189 ft | 47.04 °N, 109.42 °W | Change Station

Current weather conditions updated 8 seconds ago

Mostly Cloudy
Mostly Cloudy
70.0 °F
Feels Like 70.0 °F
N
7.0
Wind Variable Wind from ESE
Gusts 13.0 mph

Tomorrow is forecast to be nearly the same temperature as today.

Today
High -- | Low -- °F
--% Chance of Precip.
Yesterday
High -- | Low -- °F
Precip. -- in
5:33 AM 9:09 PM
Full, 100% visible
Pressure 30.03 in
Visibility 10.0 miles
Clouds Scattered Clouds 7500 ft
Mostly Cloudy 8500 ft
Dew Point 54 °F
Humidity 56%
Rainfall 0.00 in
Snow Depth Not available.
UV 0 out of 12
Pollen 4.70 out of 12
Air Quality Not available.
Flu Activity Sporadic
METAR KLWT 120154Z AUTO 09010KT 10SM SCT075 BKN085 25/11 A3014 RMK AO2 SLP168 T02500106

More Conditions Fewer Conditions

Pressure 30.03 in
Visibility 10.0 miles
Clouds Scattered Clouds 7500 ft
Mostly Cloudy 8500 ft
Dew Point 54 °F
Humidity 56%
Rainfall 0.00 in
Snow Depth Not available.
UV 0 out of 12
Pollen 4.70 out of 12
Air Quality Not available.
Flu Activity Sporadic
METAR KLWT 120154Z AUTO 09010KT 10SM SCT075 BKN085 25/11 A3014 RMK AO2 SLP168 T02500106

More Conditions Fewer Conditions

10-Day Weather Forecast

Almanac

Astronomy

Jul. 11, 2014 Rise Set
Actual Time 5:33 AM MDT 9:09 PM MDT
Civil Twilight 4:54 AM MDT 9:48 PM MDT
Nautical Twilight 4:03 AM MDT 10:39 PM MDT
Astronomical Twilight 2:53 AM MDT 11:48 PM MDT
Moon 8:17 PM MDT (7/11) 4:53 AM MDT (7/11)
Length of Visible Light 16h 53m
Length of Day
15h 36m
Tomorrow will be 1m 34s shorter.
Full, 100% of the Moon is Illuminated
Today
Full
Jul 12
Full
Jul 18
Last Quarter
Jul 26
New
Aug 3
First Quarter

Today's Extremes

State Highs State Lows

Community

WunderPhotos

Upload Photos

1,732,655 photos uploaded!

Nearby

Snow Depth

Station Depth Elevation
Crystal Lake 0 in 6050 ft
Spur Park 0 in 8100 ft
Porcupine 0 in 6500 ft
Placer Basin 0 in 8830 ft
Burnt Mountain 1 in 5880 ft

Earthquake Activity

City Distance Mag. Time & Date
No recent earthquake activity has been reported nearby.
Minimum magnitude displayed is 2.5.

Coastal Water Temperatures

Place Temperature
No Stations Reporting

Nearby Weather Stations

Station Location Temp. Heat Index Dew Point Humidity Wind Precip. Elev Updated Type
3/4 mile S of Lewistown, Lewistown, Mt 70.0 °F - 54 °F 56% ESE  at  7.0 mph 0.00 in / hr 4189 ft 8:41 PM MDT Rapid Fire
3rd Ave S Lewistown, Lewistown, MT 73.1 °F 77 °F 54 °F 52% NNE  at  2.0 mph 0.00 in / hr 3927 ft 8:26 PM MDT Rapid Fire

Show More Stations Show Fewer Stations